• Join FlightAware (Why Join?)
  • Login
  • US Flag 
08:11PM EST


 

Airport Tracker/Info


-or-


 

Live Flight TrackerFlight Track Log ✈ AAY876 ✈ 03-Apr-2014 ✈ KPIE - KRFD

Flight Track Log - Related Links

Times and Time Zones

All times are in EDT time to prevent confusion due to time zone crossing. See the AAY876 flight status page for this flight to view local times or setup timezone preferences in your user account.

Time Position Orientation Groundspeed Altitude Reporting Facility
EDT Latitude Longitude Course Direction KTS MPH feet Rate Location/Type
03:04PM 27.9000 -82.6833 180° South 160 184 900  Level Tampa TRACON
03:05PM 27.8333 -82.6833 180° South 216 249 3,300 1,440 Climbing Tampa TRACON
03:06PM 27.8333 -82.7500 270° West 289 333 4,100 1,560 Climbing Tampa TRACON
03:07PM 27.9433 -82.8244 329° Northwest 273 314 7,500 2,280 Climbing Jacksonville Center
03:08PM 28.0289 -82.8267 359° North 273 314 10,200 1,860 Climbing Jacksonville Center
03:09PM 28.1206 -82.8197 North 300 345 11,300 1,260 Climbing Jacksonville Center
03:10PM 28.2272 -82.8125 North 341 392 12,800 1,860 Climbing Jacksonville Center
03:11PM 28.3378 -82.7983 North 381 438 15,100 2,100 Climbing Jacksonville Center
03:12PM 28.4483 -82.8217 349° North 392 451 17,100 1,560 Climbing Jacksonville Center
03:13PM 28.5694 -82.8453 350° North 412 474 18,300 1,500 Climbing Jacksonville Center
03:14PM 28.6883 -82.8714 349° North 427 491 20,200 1,680 Climbing Jacksonville Center
03:15PM 28.7989 -82.8856 354° North 432 497 21,700 1,380 Climbing Jacksonville Center
03:16PM 28.9222 -82.9139 349° North 437 503 23,000 1,500 Climbing Jacksonville Center
03:17PM 29.0472 -82.9353 351° North 448 516 24,800 1,740 Climbing Jacksonville Center
03:18PM 29.1706 -82.9617 349° North 448 516 26,500 1,380 Climbing Jacksonville Center
03:19PM 29.2914 -82.9878 349° North 448 516 27,600 1,500 Climbing Jacksonville Center
03:20PM 29.4125 -83.0094 351° North 443 510 29,500 1,200 Climbing Jacksonville Center
03:21PM 29.5419 -83.0406 348° North 437 503 30,000 180 Climbing Jacksonville Center
03:22PM 29.6547 -83.0789 344° North 428 493 29,900 -60 Descending Jacksonville Center
03:23PM 29.7653 -83.1294 338° Northwest 423 487 29,900  Level Jacksonville Center
03:24PM 29.8717 -83.1775 339° North 423 487 29,900  Level Jacksonville Center
03:25PM 29.9697 -83.2233 338° Northwest 411 473 29,900  Level Jacksonville Center
03:26PM 30.0906 -83.2767 339° North 419 482 29,900  Level Jacksonville Center
03:27PM 30.1989 -83.3300 337° Northwest 419 482 29,900 60 Level Jacksonville Center
03:28PM 30.3072 -83.3786 339° North 414 476 30,100 600 Climbing Jacksonville Center
03:29PM 30.4158 -83.4297 338° Northwest 414 476 31,100 900 Climbing Jacksonville Center
03:30PM 30.5242 -83.4811 338° Northwest 414 476 31,900 360 Climbing Jacksonville Center
03:31PM 30.6303 -83.5322 337° Northwest 414 476 31,900  Level Jacksonville Center
03:32PM 30.7283 -83.5764 339° North 414 476 32,000  Climbing Jacksonville Center
03:33PM 30.8386 -83.6306 337° Northwest 419 482 32,000  Level Jacksonville Center
03:34PM 30.9489 -83.6822 338° Northwest 419 482 32,000  Level Jacksonville Center
03:35PM 31.0572 -83.7342 338° Northwest 419 482 32,000  Level Jacksonville Center
03:36PM 31.1633 -83.7861 337° Northwest 413 475 32,000  Level Jacksonville Center
03:37PM 31.2714 -83.8381 338° Northwest 413 475 32,000  Level Jacksonville Center
03:39PM 31.4544 -83.9294 337° Northwest 436 502 32,000  Level Atlanta Center
03:40PM 31.5650 -83.9681 343° North 431 496 32,000  Level Atlanta Center
03:41PM 31.6839 -83.9950 349° North 426 490 32,000  Level Atlanta Center
03:42PM 31.7967 -84.0217 349° North 426 490 32,000  Level Atlanta Center
03:43PM 31.9156 -84.0461 350° North 426 490 32,000  Level Atlanta Center
03:44PM 32.0181 -84.0706 349° North 421 484 32,000  Level Atlanta Center
03:45PM 32.1347 -84.0953 350° North 421 484 32,000  Level Atlanta Center
03:46PM 32.2517 -84.1247 348° North 421 484 32,000  Level Atlanta Center
03:47PM 32.3686 -84.1447 352° North 421 484 32,000  Level Atlanta Center
03:48PM 32.4811 -84.1767 347° North 421 484 32,000  Level Atlanta Center
03:49PM 32.5961 -84.1992 351° North 421 484 32,000  Level Atlanta Center
03:50PM 32.7128 -84.2289 348° North 421 484 32,000  Level Atlanta Center
03:51PM 32.8275 -84.2564 349° North 421 484 32,000  Level Atlanta Center
03:52PM 32.9550 -84.2914 347° North 421 484 32,000  Level Atlanta Center
03:53PM 33.0717 -84.3114 352° North 415 478 32,000  Level Atlanta Center
03:54PM 33.1844 -84.3392 348° North 415 478 32,000  Level Atlanta Center
03:55PM 33.3011 -84.3619 351° North 415 478 32,000  Level Atlanta Center
03:56PM 33.4181 -84.3922 348° North 415 478 32,000  Level Atlanta Center
03:57PM 33.5328 -84.4150 351° North 415 478 32,000  Level Atlanta Center
03:58PM 33.6475 -84.4456 347° North 415 478 32,000  Level Atlanta Center
03:59PM 33.7600 -84.4686 350° North 416 479 32,000  Level Atlanta Center
04:00PM 33.8747 -84.5017 347° North 416 479 32,000  Level Atlanta Center
04:01PM 33.9853 -84.5197 352° North 416 479 32,000  Level Atlanta Center
04:02PM 34.0981 -84.5506 347° North 425 489 32,000  Level Atlanta Center
04:03PM 34.2292 -84.5789 350° North 435 501 32,000  Level Atlanta Center
04:04PM 34.3461 -84.6125 347° North 429 494 32,000  Level Atlanta Center
04:05PM 34.4608 -84.6358 350° North 429 494 32,000  Level Atlanta Center
04:06PM 34.5753 -84.6644 348° North 423 487 32,000  Level Atlanta Center
04:07PM 34.6753 -84.6903 348° North 423 487 32,000  Level Atlanta Center
04:08PM 34.7900 -84.7217 347° North 418 481 32,000  Level Atlanta Center
04:09PM 34.9089 -84.7481 350° North 418 481 32,000  Level Atlanta Center
04:10PM 35.0214 -84.7794 347° North 418 481 32,000  Level Atlanta Center
04:11PM 35.1381 -84.8058 350° North 418 481 32,000  Level Atlanta Center
04:12PM 35.2547 -84.8400 347° North 418 481 32,000  Level Atlanta Center
04:13PM 35.3714 -84.8639 351° North 423 487 32,000  Level Atlanta Center
04:14PM 35.4878 -84.8983 346° North 423 487 32,000  Level Atlanta Center
04:15PM 35.6067 -84.9225 351° North 428 493 32,000  Level Atlanta Center
04:17PM 35.8228 -84.9781 348° North 426 490 32,000  Level Indianapolis Center
04:18PM 35.9422 -85.0108 347° North 432 497 32,000  Level Indianapolis Center
04:19PM 36.0833 -85.0411 350° North 434 499 32,000  Level Indianapolis Center
04:20PM 36.1997 -85.0783 346° North 432 497 32,000  Level Indianapolis Center
04:21PM 36.3203 -85.1017 351° North 433 498 32,000  Level Indianapolis Center
04:22PM 36.4450 -85.1033 359° North 442 509 32,000  Level Indianapolis Center
04:23PM 36.5678 -85.1114 357° North 443 510 32,000  Level Indianapolis Center
04:24PM 36.6892 -85.1250 355° North 441 507 32,000  Level Indianapolis Center
04:25PM 36.8133 -85.1253 360° North 441 507 32,000  Level Indianapolis Center
04:26PM 36.9608 -85.1347 357° North 441 507 32,000  Level Indianapolis Center
04:27PM 37.0836 -85.1578 351° North 440 506 32,000  Level Indianapolis Center
04:28PM 37.2039 -85.1869 349° North 439 505 32,000  Level Indianapolis Center
04:29PM 37.3183 -85.2403 340° North 437 503 32,000  Level Indianapolis Center
04:30PM 37.4333 -85.2853 343° North 436 502 32,000  Level Indianapolis Center
04:31PM 37.5469 -85.3394 339° North 436 502 32,000  Level Indianapolis Center
04:32PM 37.6631 -85.3831 343° North 435 501 32,000  Level Indianapolis Center
04:33PM 37.7964 -85.4411 341° North 435 501 32,000  Level Indianapolis Center
04:34PM 37.8919 -85.4853 340° North 434 499 32,000  Level Indianapolis Center
04:35PM 38.0344 -85.5497 340° North 445 512 32,000  Level Indianapolis Center
04:36PM 38.1539 -85.6064 340° North 451 519 32,000  Level Indianapolis Center
04:37PM 38.2678 -85.6761 334° Northwest 451 519 32,000  Level Indianapolis Center
04:38PM 38.3817 -85.7383 337° Northwest 449 517 32,000  Level Indianapolis Center
04:40PM 38.4956 -85.8100 334° Northwest 452 520 32,000  Level Indianapolis Center
04:41PM 38.6122 -85.8719 337° Northwest 452 520 32,000  Level Indianapolis Center
04:42PM 38.7247 -85.9456 333° Northwest 452 520 32,000  Level Indianapolis Center
04:43PM 38.8622 -86.0256 336° Northwest 452 520 32,000  Level Indianapolis Center
04:44PM 38.9597 -86.0892 333° Northwest 445 512 32,000  Level Indianapolis Center
04:45PM 39.0714 -86.1486 338° Northwest 438 504 32,000  Level Indianapolis Center
04:46PM 39.2022 -86.2331 333° Northwest 436 502 32,000  Level Indianapolis Center
04:47PM 39.3144 -86.2961 337° Northwest 437 503 32,000  Level Indianapolis Center
04:48PM 39.4239 -86.3678 333° Northwest 437 503 32,000  Level Indianapolis Center
04:49PM 39.5386 -86.4328 336° Northwest 441 507 32,000  Level Indianapolis Center
04:50PM 39.6492 -86.5086 332° Northwest 441 507 32,000  Level Indianapolis Center
04:51PM 39.7672 -86.5739 337° Northwest 448 516 32,000  Level Indianapolis Center
04:52PM 39.8781 -86.6492 332° Northwest 448 516 32,000  Level Indianapolis Center
04:53PM 39.9908 -86.7097 338° Northwest 443 510 32,000  Level Indianapolis Center
04:54PM 40.0975 -86.7817 333° Northwest 434 499 32,000  Level Indianapolis Center
04:55PM 40.2075 -86.8469 336° Northwest 433 498 32,000  Level Indianapolis Center
04:56PM 40.3372 -86.9342 333° Northwest 433 498 32,000  Level Indianapolis Center
04:57PM 40.4458 -87.0072 333° Northwest 436 502 32,000  Level Indianapolis Center
04:58PM 40.5125 -87.1322 305° West 420 483 32,000  Level Indianapolis Center
04:59PM 40.5883 -87.2531 310° West 425 489 32,000  Level Indianapolis Center
05:01PM 40.6853 -87.4272 306° West 424 488 32,000  Level Chicago Center
05:02PM 40.7558 -87.5508 307° West 420 483 32,000  Level Chicago Center
05:03PM 40.8217 -87.6714 306° West 408 470 32,000 -600 Level Chicago Center
05:04PM 40.9025 -87.8183 306° West 412 474 30,800 -1,380 Descending Chicago Center
05:05PM 40.9681 -87.9419 305° West 412 474 29,200 -1,380 Descending Chicago Center
05:06PM 41.0369 -88.0611 307° West 411 473 28,000 -720 Descending Chicago Center
05:07PM 41.1003 -88.1842 304° West 408 470 27,800 -660 Descending Chicago Center
05:08PM 41.1731 -88.3033 309° West 410 472 26,700 -1,320 Descending Chicago Center
05:09PM 41.2322 -88.4289 302° West 401 461 25,100 -1,320 Descending Chicago Center
05:10PM 41.3119 -88.5661 308° West 399 459 24,000 -1,380 Descending Chicago Center
05:11PM 41.3725 -88.6872 304° West 395 455 22,300 -1,860 Descending Chicago Center
05:12PM 41.4408 -88.8003 309° West 396 456 20,200 -2,280 Descending Chicago Center
05:13PM 41.4983 -88.9139 304° West 376 433 17,600 -2,400 Descending Chicago Center
05:14PM 41.5550 -89.0181 306° West 358 412 15,300 -1,800 Descending Chicago Center
05:15PM 41.6175 -89.1461 303° West 348 400 14,000 -660 Descending Chicago Center
05:16PM 41.6697 -89.2328 309° West 309 356 14,000 -120 Level Chicago Center
05:17PM 41.7286 -89.2964 321° Northwest 284 327 13,800 -720 Descending Chicago Center
05:18PM 41.8122 -89.2622 17° North 309 356 12,600 -1,680 Descending Chicago Center
05:19PM 41.8961 -89.2592 North 307 353 10,300 -2,340 Descending Chicago Center
05:20PM 41.9919 -89.2786 351° North 294 338 7,800 -2,400 Descending Chicago Center
05:21PM 42.0586 -89.3178 336° Northwest 277 319 5,400 -2,160 Descending Chicago Center
05:22PM 42.1294 -89.3594 336° Northwest 266 306 3,400 -1,980 Descending Chicago Center
05:24PM 42.1765 -89.1726 71° East  Level Estimated
05:31PM 42.1954 -89.0972 14° North  Level Estimated